メインページ
METAR-TAF:

METAR-TAF

空港 :

ジッダ, サウジアラビア

キング・アブドゥルアズィーズ国際空港

緯度: 21-42N, 経度: 039-11E, 海抜: 15m

現時点の気象観測

当レポートは30分前の23:00(UTC)に作成
の風 4kt
気温 30°C
湿度 35%
気圧 1005 hPa
視程10km以上
1,500メートル以下は雲なし、積乱雲なし

METAR: OEJN 232300Z 36004KT CAVOK 30/13 Q1005 NOSIG

時間: 02:30 (23:30 UTC)

予報

当レポートは6時間30分前の17:00(UTC)に作成
予報は23日の 18時(UTC)から 24日の 24時(UTC)まで有効
南/南西の風 6kt
視程10km以上
1,500メートル以下は雲なし、積乱雲なし
24日の 06時(UTC)から 24日の 08時(UTC)まで徐々に
西/北西の風 15kt

TAF: OEJN 231700Z 2318/2424 20006KT CAVOK BECMG 2406/2408 30015KT

4,000以上の空港の気象観測と天気予報(METAR報とTAF報)

利用可能な観測所は地図上に黄色い丸と赤い丸で示す。

丸の上にカーソルを重ねると観測所名を参照できる。

次にクリックすると気象観測と天気予報を参照できる。

マップの切り替え:黒色「×」印の緑ボタンをクリックして拡大、「-」印の緑ボタンをクリックして縮小、緑色の三角印をクリックして隣りの地図に切り替え


METAR-TAF: